sensor_id;sensor_type;location;lat;lon;timestamp;P1;durP1;ratioP1;P2;durP2;ratioP2
12768;SDS011;6448;48.916;8.990;2022-12-07T00:00:54;4.45;;;4.15;;
12768;SDS011;6448;48.916;8.990;2022-12-07T00:01:55;4.78;;;4.38;;
12768;SDS011;6448;48.916;8.990;2022-12-07T00:04:55;4.90;;;4.50;;
12768;SDS011;6448;48.916;8.990;2022-12-07T00:06:46;4.50;;;4.20;;
12768;SDS011;6448;48.916;8.990;2022-12-07T00:07:52;4.70;;;4.30;;
12768;SDS011;6448;48.916;8.990;2022-12-07T00:08:53;4.53;;;4.13;;
12768;SDS011;6448;48.916;8.990;2022-12-07T00:10:22;4.72;;;4.32;;
12768;SDS011;6448;48.916;8.990;2022-12-07T00:11:23;4.57;;;4.22;;
12768;SDS011;6448;48.916;8.990;2022-12-07T00:12:28;4.40;;;4.10;;
12768;SDS011;6448;48.916;8.990;2022-12-07T00:13:50;5.00;;;4.60;;
12768;SDS011;6448;48.916;8.990;2022-12-07T00:20:50;5.15;;;4.75;;
12768;SDS011;6448;48.916;8.990;2022-12-07T00:21:52;5.10;;;4.70;;
12768;SDS011;6448;48.916;8.990;2022-12-07T00:22:53;4.75;;;4.35;;
12768;SDS011;6448;48.916;8.990;2022-12-07T00:23:55;4.60;;;4.30;;
12768;SDS011;6448;48.916;8.990;2022-12-07T00:24:56;4.78;;;4.38;;
12768;SDS011;6448;48.916;8.990;2022-12-07T00:26:14;4.93;;;4.50;;
12768;SDS011;6448;48.916;8.990;2022-12-07T00:27:20;4.57;;;4.28;;
12768;SDS011;6448;48.916;8.990;2022-12-07T00:28:51;4.65;;;4.32;;
12768;SDS011;6448;48.916;8.990;2022-12-07T00:29:58;4.97;;;4.57;;
12768;SDS011;6448;48.916;8.990;2022-12-07T00:31:00;4.95;;;4.55;;
12768;SDS011;6448;48.916;8.990;2022-12-07T00:32:03;5.10;;;4.70;;
12768;SDS011;6448;48.916;8.990;2022-12-07T00:33:05;4.63;;;4.32;;
12768;SDS011;6448;48.916;8.990;2022-12-07T00:34:06;4.82;;;4.43;;
12768;SDS011;6448;48.916;8.990;2022-12-07T00:35:12;4.28;;;3.97;;
12768;SDS011;6448;48.916;8.990;2022-12-07T00:36:15;5.00;;;4.60;;
12768;SDS011;6448;48.916;8.990;2022-12-07T00:37:19;4.65;;;4.25;;
12768;SDS011;6448;48.916;8.990;2022-12-07T00:38:32;4.60;;;4.30;;
12768;SDS011;6448;48.916;8.990;2022-12-07T00:39:41;4.47;;;4.18;;
12768;SDS011;6448;48.916;8.990;2022-12-07T00:41:25;5.00;;;4.60;;
12768;SDS011;6448;48.916;8.990;2022-12-07T00:42:30;4.65;;;4.30;;
12768;SDS011;6448;48.916;8.990;2022-12-07T00:43:30;4.75;;;4.43;;
12768;SDS011;6448;48.916;8.990;2022-12-07T00:44:32;4.93;;;4.53;;
12768;SDS011;6448;48.916;8.990;2022-12-07T00:45:33;4.43;;;4.07;;
12768;SDS011;6448;48.916;8.990;2022-12-07T00:46:41;4.50;;;4.20;;
12768;SDS011;6448;48.916;8.990;2022-12-07T00:47:59;4.47;;;4.07;;
12768;SDS011;6448;48.916;8.990;2022-12-07T00:49:20;4.70;;;4.40;;
12768;SDS011;6448;48.916;8.990;2022-12-07T00:50:22;4.50;;;4.10;;
12768;SDS011;6448;48.916;8.990;2022-12-07T00:51:25;4.65;;;4.25;;
12768;SDS011;6448;48.916;8.990;2022-12-07T00:52:26;4.38;;;4.07;;
12768;SDS011;6448;48.916;8.990;2022-12-07T00:53:27;4.70;;;4.30;;
12768;SDS011;6448;48.916;8.990;2022-12-07T00:54:29;4.55;;;4.25;;
12768;SDS011;6448;48.916;8.990;2022-12-07T00:55:32;4.80;;;4.40;;
12768;SDS011;6448;48.916;8.990;2022-12-07T00:56:34;4.60;;;4.22;;
12768;SDS011;6448;48.916;8.990;2022-12-07T00:57:35;4.60;;;4.30;;
12768;SDS011;6448;48.916;8.990;2022-12-07T00:58:36;4.68;;;4.28;;
12768;SDS011;6448;48.916;8.990;2022-12-07T00:59:37;4.60;;;4.20;;
12768;SDS011;6448;48.916;8.990;2022-12-07T01:00:40;4.90;;;4.50;;
12768;SDS011;6448;48.916;8.990;2022-12-07T01:01:42;4.53;;;4.23;;
12768;SDS011;6448;48.916;8.990;2022-12-07T01:02:44;4.50;;;4.20;;
12768;SDS011;6448;48.916;8.990;2022-12-07T01:03:45;4.78;;;4.38;;
12768;SDS011;6448;48.916;8.990;2022-12-07T01:04:47;5.00;;;4.60;;
12768;SDS011;6448;48.916;8.990;2022-12-07T01:05:51;5.10;;;4.70;;
12768;SDS011;6448;48.916;8.990;2022-12-07T01:06:55;4.85;;;4.45;;
12768;SDS011;6448;48.916;8.990;2022-12-07T01:07:55;4.72;;;4.35;;
12768;SDS011;6448;48.916;8.990;2022-12-07T01:08:57;5.10;;;4.60;;
12768;SDS011;6448;48.916;8.990;2022-12-07T01:09:58;5.00;;;4.60;;
12768;SDS011;6448;48.916;8.990;2022-12-07T01:11:01;5.15;;;4.75;;
12768;SDS011;6448;48.916;8.990;2022-12-07T01:12:04;5.43;;;4.93;;
12768;SDS011;6448;48.916;8.990;2022-12-07T01:13:06;5.00;;;4.60;;
12768;SDS011;6448;48.916;8.990;2022-12-07T01:14:08;5.22;;;4.72;;
12768;SDS011;6448;48.916;8.990;2022-12-07T01:15:10;5.30;;;4.80;;
12768;SDS011;6448;48.916;8.990;2022-12-07T01:16:12;5.00;;;4.60;;
12768;SDS011;6448;48.916;8.990;2022-12-07T01:17:15;5.30;;;4.80;;
12768;SDS011;6448;48.916;8.990;2022-12-07T01:18:16;5.07;;;4.68;;
12768;SDS011;6448;48.916;8.990;2022-12-07T01:19:18;4.90;;;4.40;;
12768;SDS011;6448;48.916;8.990;2022-12-07T01:20:18;4.55;;;4.15;;
12768;SDS011;6448;48.916;8.990;2022-12-07T01:21:21;4.60;;;4.20;;
12768;SDS011;6448;48.916;8.990;2022-12-07T01:22:25;4.40;;;4.10;;
12768;SDS011;6448;48.916;8.990;2022-12-07T01:23:26;4.83;;;4.43;;
12768;SDS011;6448;48.916;8.990;2022-12-07T01:24:28;4.50;;;4.20;;
12768;SDS011;6448;48.916;8.990;2022-12-07T01:25:29;4.50;;;4.10;;
12768;SDS011;6448;48.916;8.990;2022-12-07T01:26:33;4.50;;;4.20;;
12768;SDS011;6448;48.916;8.990;2022-12-07T01:27:34;4.45;;;4.15;;
12768;SDS011;6448;48.916;8.990;2022-12-07T01:28:36;4.38;;;4.07;;
12768;SDS011;6448;48.916;8.990;2022-12-07T01:29:38;4.65;;;4.25;;
12768;SDS011;6448;48.916;8.990;2022-12-07T01:30:40;4.80;;;4.40;;
12768;SDS011;6448;48.916;8.990;2022-12-07T01:31:41;4.43;;;4.03;;
12768;SDS011;6448;48.916;8.990;2022-12-07T01:32:42;4.50;;;4.10;;
12768;SDS011;6448;48.916;8.990;2022-12-07T01:33:44;4.57;;;4.18;;
12768;SDS011;6448;48.916;8.990;2022-12-07T01:34:47;4.28;;;3.97;;
12768;SDS011;6448;48.916;8.990;2022-12-07T01:35:48;4.65;;;4.25;;
12768;SDS011;6448;48.916;8.990;2022-12-07T01:36:50;4.30;;;4.00;;
12768;SDS011;6448;48.916;8.990;2022-12-07T01:37:53;4.13;;;3.80;;
12768;SDS011;6448;48.916;8.990;2022-12-07T01:38:55;4.28;;;3.97;;
12768;SDS011;6448;48.916;8.990;2022-12-07T01:39:58;4.53;;;4.13;;
12768;SDS011;6448;48.916;8.990;2022-12-07T01:40:59;4.20;;;3.90;;
12768;SDS011;6448;48.916;8.990;2022-12-07T01:42:02;3.90;;;3.60;;
12768;SDS011;6448;48.916;8.990;2022-12-07T01:43:04;4.50;;;4.20;;
12768;SDS011;6448;48.916;8.990;2022-12-07T01:44:19;4.03;;;3.72;;
12768;SDS011;6448;48.916;8.990;2022-12-07T01:46:39;4.18;;;3.88;;
12768;SDS011;6448;48.916;8.990;2022-12-07T01:47:42;4.10;;;3.80;;
12768;SDS011;6448;48.916;8.990;2022-12-07T01:48:46;4.45;;;4.05;;
12768;SDS011;6448;48.916;8.990;2022-12-07T01:49:48;3.90;;;3.60;;
12768;SDS011;6448;48.916;8.990;2022-12-07T01:50:50;4.05;;;3.75;;
12768;SDS011;6448;48.916;8.990;2022-12-07T01:51:55;4.13;;;3.83;;
12768;SDS011;6448;48.916;8.990;2022-12-07T01:53:02;4.30;;;4.00;;
12768;SDS011;6448;48.916;8.990;2022-12-07T01:54:07;4.25;;;3.95;;
12768;SDS011;6448;48.916;8.990;2022-12-07T01:55:12;4.18;;;3.88;;
12768;SDS011;6448;48.916;8.990;2022-12-07T01:56:16;4.10;;;3.80;;
12768;SDS011;6448;48.916;8.990;2022-12-07T01:57:21;4.20;;;3.90;;
12768;SDS011;6448;48.916;8.990;2022-12-07T01:58:23;4.13;;;3.83;;
12768;SDS011;6448;48.916;8.990;2022-12-07T01:59:25;4.03;;;3.72;;
12768;SDS011;6448;48.916;8.990;2022-12-07T02:00:26;4.00;;;3.70;;
12768;SDS011;6448;48.916;8.990;2022-12-07T02:01:28;4.03;;;3.72;;
12768;SDS011;6448;48.916;8.990;2022-12-07T02:02:30;4.28;;;3.97;;
12768;SDS011;6448;48.916;8.990;2022-12-07T02:03:34;4.35;;;4.05;;
12768;SDS011;6448;48.916;8.990;2022-12-07T02:04:39;3.93;;;3.63;;
12768;SDS011;6448;48.916;8.990;2022-12-07T02:05:40;4.03;;;3.72;;
12768;SDS011;6448;48.916;8.990;2022-12-07T02:06:43;4.10;;;3.80;;
12768;SDS011;6448;48.916;8.990;2022-12-07T02:07:46;4.07;;;3.78;;
12768;SDS011;6448;48.916;8.990;2022-12-07T02:08:51;4.20;;;3.90;;
12768;SDS011;6448;48.916;8.990;2022-12-07T02:09:53;4.00;;;3.70;;
12768;SDS011;6448;48.916;8.990;2022-12-07T02:10:55;4.20;;;3.90;;
12768;SDS011;6448;48.916;8.990;2022-12-07T02:11:59;4.18;;;3.88;;
12768;SDS011;6448;48.916;8.990;2022-12-07T02:13:01;4.50;;;4.20;;
12768;SDS011;6448;48.916;8.990;2022-12-07T02:14:05;3.92;;;3.63;;
12768;SDS011;6448;48.916;8.990;2022-12-07T02:15:08;3.83;;;3.53;;
12768;SDS011;6448;48.916;8.990;2022-12-07T02:16:12;3.97;;;3.67;;
12768;SDS011;6448;48.916;8.990;2022-12-07T02:17:25;3.92;;;3.63;;
12768;SDS011;6448;48.916;8.990;2022-12-07T02:18:55;4.07;;;3.78;;
12768;SDS011;6448;48.916;8.990;2022-12-07T02:20:13;4.32;;;4.03;;
12768;SDS011;6448;48.916;8.990;2022-12-07T02:21:26;4.28;;;3.97;;
12768;SDS011;6448;48.916;8.990;2022-12-07T02:22:43;4.22;;;3.92;;
12768;SDS011;6448;48.916;8.990;2022-12-07T02:24:24;4.10;;;3.80;;
12768;SDS011;6448;48.916;8.990;2022-12-07T02:25:41;3.78;;;3.50;;
12768;SDS011;6448;48.916;8.990;2022-12-07T02:27:05;4.00;;;3.70;;
12768;SDS011;6448;48.916;8.990;2022-12-07T02:28:19;4.10;;;3.80;;
12768;SDS011;6448;48.916;8.990;2022-12-07T02:29:30;4.07;;;3.78;;
12768;SDS011;6448;48.916;8.990;2022-12-07T02:30:39;4.00;;;3.70;;
12768;SDS011;6448;48.916;8.990;2022-12-07T02:31:45;4.03;;;3.73;;
12768;SDS011;6448;48.916;8.990;2022-12-07T02:32:54;4.25;;;3.95;;
12768;SDS011;6448;48.916;8.990;2022-12-07T02:34:01;4.30;;;4.00;;
12768;SDS011;6448;48.916;8.990;2022-12-07T02:35:09;4.25;;;3.95;;
12768;SDS011;6448;48.916;8.990;2022-12-07T02:36:17;4.30;;;4.00;;
12768;SDS011;6448;48.916;8.990;2022-12-07T02:37:28;4.00;;;3.70;;
12768;SDS011;6448;48.916;8.990;2022-12-07T02:38:39;4.22;;;3.92;;
12768;SDS011;6448;48.916;8.990;2022-12-07T02:39:46;4.18;;;3.88;;
12768;SDS011;6448;48.916;8.990;2022-12-07T02:40:53;4.30;;;4.00;;
12768;SDS011;6448;48.916;8.990;2022-12-07T02:41:58;4.18;;;3.88;;
12768;SDS011;6448;48.916;8.990;2022-12-07T02:43:06;4.22;;;3.92;;
12768;SDS011;6448;48.916;8.990;2022-12-07T02:44:11;4.00;;;3.70;;
12768;SDS011;6448;48.916;8.990;2022-12-07T02:45:18;4.20;;;3.90;;
12768;SDS011;6448;48.916;8.990;2022-12-07T02:46:22;4.13;;;3.83;;
12768;SDS011;6448;48.916;8.990;2022-12-07T02:47:27;4.13;;;3.83;;
12768;SDS011;6448;48.916;8.990;2022-12-07T02:48:32;4.18;;;3.88;;
12768;SDS011;6448;48.916;8.990;2022-12-07T02:49:35;4.18;;;3.88;;
12768;SDS011;6448;48.916;8.990;2022-12-07T02:50:38;4.35;;;4.05;;
12768;SDS011;6448;48.916;8.990;2022-12-07T02:51:45;4.43;;;4.13;;
12768;SDS011;6448;48.916;8.990;2022-12-07T02:52:46;4.60;;;4.20;;
12768;SDS011;6448;48.916;8.990;2022-12-07T02:53:48;4.22;;;3.92;;
12768;SDS011;6448;48.916;8.990;2022-12-07T02:54:49;4.20;;;3.90;;
12768;SDS011;6448;48.916;8.990;2022-12-07T02:55:51;4.32;;;4.03;;
12768;SDS011;6448;48.916;8.990;2022-12-07T02:56:53;4.35;;;4.05;;
12768;SDS011;6448;48.916;8.990;2022-12-07T02:58:06;4.70;;;4.30;;
12768;SDS011;6448;48.916;8.990;2022-12-07T02:59:26;4.57;;;4.28;;
12768;SDS011;6448;48.916;8.990;2022-12-07T03:00:39;4.40;;;4.10;;
12768;SDS011;6448;48.916;8.990;2022-12-07T03:01:50;4.75;;;4.35;;
12768;SDS011;6448;48.916;8.990;2022-12-07T03:03:03;5.03;;;4.63;;
12768;SDS011;6448;48.916;8.990;2022-12-07T03:04:13;4.60;;;4.30;;
12768;SDS011;6448;48.916;8.990;2022-12-07T03:05:28;4.70;;;4.40;;
12768;SDS011;6448;48.916;8.990;2022-12-07T03:06:42;4.53;;;4.22;;
12768;SDS011;6448;48.916;8.990;2022-12-07T03:07:51;4.60;;;4.30;;
12768;SDS011;6448;48.916;8.990;2022-12-07T03:09:01;4.55;;;4.22;;
12768;SDS011;6448;48.916;8.990;2022-12-07T03:10:16;4.57;;;4.28;;
12768;SDS011;6448;48.916;8.990;2022-12-07T03:11:24;4.70;;;4.32;;
12768;SDS011;6448;48.916;8.990;2022-12-07T03:12:31;4.70;;;4.40;;
12768;SDS011;6448;48.916;8.990;2022-12-07T03:13:38;5.10;;;4.70;;
12768;SDS011;6448;48.916;8.990;2022-12-07T03:14:46;4.80;;;4.40;;
12768;SDS011;6448;48.916;8.990;2022-12-07T03:15:55;4.65;;;4.35;;
12768;SDS011;6448;48.916;8.990;2022-12-07T03:17:04;4.60;;;4.30;;
12768;SDS011;6448;48.916;8.990;2022-12-07T03:18:10;4.97;;;4.57;;
12768;SDS011;6448;48.916;8.990;2022-12-07T03:19:17;5.07;;;4.68;;
12768;SDS011;6448;48.916;8.990;2022-12-07T03:20:21;4.60;;;4.30;;
12768;SDS011;6448;48.916;8.990;2022-12-07T03:21:26;5.13;;;4.63;;
12768;SDS011;6448;48.916;8.990;2022-12-07T03:22:31;4.90;;;4.50;;
12768;SDS011;6448;48.916;8.990;2022-12-07T03:23:37;5.30;;;4.90;;
12768;SDS011;6448;48.916;8.990;2022-12-07T03:24:42;4.63;;;4.32;;
12768;SDS011;6448;48.916;8.990;2022-12-07T03:25:47;4.82;;;4.43;;
12768;SDS011;6448;48.916;8.990;2022-12-07T03:26:51;4.63;;;4.30;;
12768;SDS011;6448;48.916;8.990;2022-12-07T03:27:57;5.03;;;4.63;;
12768;SDS011;6448;48.916;8.990;2022-12-07T03:29:02;4.57;;;4.28;;
12768;SDS011;6448;48.916;8.990;2022-12-07T03:30:09;4.95;;;4.60;;
12768;SDS011;6448;48.916;8.990;2022-12-07T03:31:15;4.80;;;4.40;;
12768;SDS011;6448;48.916;8.990;2022-12-07T03:32:22;5.05;;;4.65;;
12768;SDS011;6448;48.916;8.990;2022-12-07T03:33:27;4.77;;;4.47;;
12768;SDS011;6448;48.916;8.990;2022-12-07T03:34:33;4.63;;;4.32;;
12768;SDS011;6448;48.916;8.990;2022-12-07T03:35:39;5.07;;;4.68;;
12768;SDS011;6448;48.916;8.990;2022-12-07T03:36:43;5.10;;;4.80;;
12768;SDS011;6448;48.916;8.990;2022-12-07T03:37:49;5.05;;;4.65;;
12768;SDS011;6448;48.916;8.990;2022-12-07T03:38:55;5.05;;;4.65;;
12768;SDS011;6448;48.916;8.990;2022-12-07T03:40:03;4.75;;;4.45;;
12768;SDS011;6448;48.916;8.990;2022-12-07T03:41:12;5.15;;;4.75;;
12768;SDS011;6448;48.916;8.990;2022-12-07T03:42:18;5.00;;;4.60;;
12768;SDS011;6448;48.916;8.990;2022-12-07T03:43:19;4.90;;;4.50;;
12768;SDS011;6448;48.916;8.990;2022-12-07T03:44:21;4.90;;;4.50;;
12768;SDS011;6448;48.916;8.990;2022-12-07T03:45:24;4.93;;;4.60;;
12768;SDS011;6448;48.916;8.990;2022-12-07T03:46:36;5.00;;;4.60;;
12768;SDS011;6448;48.916;8.990;2022-12-07T03:47:46;4.70;;;4.38;;
12768;SDS011;6448;48.916;8.990;2022-12-07T03:48:53;5.00;;;4.63;;
12768;SDS011;6448;48.916;8.990;2022-12-07T03:50:00;5.20;;;4.80;;
12768;SDS011;6448;48.916;8.990;2022-12-07T03:51:07;4.88;;;4.47;;
12768;SDS011;6448;48.916;8.990;2022-12-07T03:52:16;4.90;;;4.60;;
12768;SDS011;6448;48.916;8.990;2022-12-07T03:53:24;4.80;;;4.45;;
12768;SDS011;6448;48.916;8.990;2022-12-07T03:54:33;4.85;;;4.55;;
12768;SDS011;6448;48.916;8.990;2022-12-07T03:55:39;4.70;;;4.40;;
12768;SDS011;6448;48.916;8.990;2022-12-07T03:56:44;5.20;;;4.80;;
12768;SDS011;6448;48.916;8.990;2022-12-07T03:57:47;4.80;;;4.47;;
12768;SDS011;6448;48.916;8.990;2022-12-07T03:58:52;4.97;;;4.63;;
12768;SDS011;6448;48.916;8.990;2022-12-07T03:59:54;4.32;;;4.03;;
12768;SDS011;6448;48.916;8.990;2022-12-07T04:00:56;4.70;;;4.40;;
12768;SDS011;6448;48.916;8.990;2022-12-07T04:02:01;4.43;;;4.13;;
12768;SDS011;6448;48.916;8.990;2022-12-07T04:03:04;4.30;;;4.00;;
12768;SDS011;6448;48.916;8.990;2022-12-07T04:04:05;4.40;;;4.10;;
12768;SDS011;6448;48.916;8.990;2022-12-07T04:05:07;4.13;;;3.83;;
12768;SDS011;6448;48.916;8.990;2022-12-07T04:06:08;4.18;;;3.88;;
12768;SDS011;6448;48.916;8.990;2022-12-07T04:07:10;4.30;;;4.00;;
12768;SDS011;6448;48.916;8.990;2022-12-07T04:08:11;4.10;;;3.80;;
12768;SDS011;6448;48.916;8.990;2022-12-07T04:09:13;4.03;;;3.72;;
12768;SDS011;6448;48.916;8.990;2022-12-07T04:10:14;3.97;;;3.70;;
12768;SDS011;6448;48.916;8.990;2022-12-07T04:11:16;3.83;;;3.53;;
12768;SDS011;6448;48.916;8.990;2022-12-07T04:12:17;4.10;;;3.80;;
12768;SDS011;6448;48.916;8.990;2022-12-07T04:13:19;4.03;;;3.72;;
12768;SDS011;6448;48.916;8.990;2022-12-07T04:14:20;4.10;;;3.80;;
12768;SDS011;6448;48.916;8.990;2022-12-07T04:15:21;4.13;;;3.83;;
12768;SDS011;6448;48.916;8.990;2022-12-07T04:16:23;4.05;;;3.75;;
12768;SDS011;6448;48.916;8.990;2022-12-07T04:17:25;4.18;;;3.88;;
12768;SDS011;6448;48.916;8.990;2022-12-07T04:18:27;4.38;;;4.07;;
12768;SDS011;6448;48.916;8.990;2022-12-07T04:19:28;3.95;;;3.67;;
12768;SDS011;6448;48.916;8.990;2022-12-07T04:20:31;4.03;;;3.72;;
12768;SDS011;6448;48.916;8.990;2022-12-07T04:21:32;4.00;;;3.70;;
12768;SDS011;6448;48.916;8.990;2022-12-07T04:22:34;4.03;;;3.72;;
12768;SDS011;6448;48.916;8.990;2022-12-07T04:23:35;4.50;;;4.20;;
12768;SDS011;6448;48.916;8.990;2022-12-07T04:24:37;4.00;;;3.70;;
12768;SDS011;6448;48.916;8.990;2022-12-07T04:25:38;4.18;;;3.88;;
12768;SDS011;6448;48.916;8.990;2022-12-07T04:26:41;3.97;;;3.67;;
12768;SDS011;6448;48.916;8.990;2022-12-07T04:27:42;3.90;;;3.60;;
12768;SDS011;6448;48.916;8.990;2022-12-07T04:28:44;4.20;;;3.90;;
12768;SDS011;6448;48.916;8.990;2022-12-07T04:29:44;4.22;;;3.92;;
12768;SDS011;6448;48.916;8.990;2022-12-07T04:30:46;4.07;;;3.78;;
12768;SDS011;6448;48.916;8.990;2022-12-07T04:31:47;4.30;;;4.00;;
12768;SDS011;6448;48.916;8.990;2022-12-07T04:32:50;4.45;;;4.15;;
12768;SDS011;6448;48.916;8.990;2022-12-07T04:33:51;4.70;;;4.40;;
12768;SDS011;6448;48.916;8.990;2022-12-07T04:34:53;4.40;;;4.10;;
12768;SDS011;6448;48.916;8.990;2022-12-07T04:35:54;4.30;;;4.00;;
12768;SDS011;6448;48.916;8.990;2022-12-07T04:36:55;4.50;;;4.10;;
12768;SDS011;6448;48.916;8.990;2022-12-07T04:37:56;4.80;;;4.40;;
12768;SDS011;6448;48.916;8.990;2022-12-07T04:38:58;5.03;;;4.63;;
12768;SDS011;6448;48.916;8.990;2022-12-07T04:39:59;4.90;;;4.50;;
12768;SDS011;6448;48.916;8.990;2022-12-07T04:41:04;4.90;;;4.50;;
12768;SDS011;6448;48.916;8.990;2022-12-07T04:42:05;5.13;;;4.72;;
12768;SDS011;6448;48.916;8.990;2022-12-07T04:43:07;5.28;;;4.88;;
12768;SDS011;6448;48.916;8.990;2022-12-07T04:44:08;6.00;;;5.50;;
12768;SDS011;6448;48.916;8.990;2022-12-07T04:45:10;6.13;;;5.63;;
12768;SDS011;6448;48.916;8.990;2022-12-07T04:46:11;6.72;;;6.13;;
12768;SDS011;6448;48.916;8.990;2022-12-07T04:47:12;6.13;;;5.63;;
12768;SDS011;6448;48.916;8.990;2022-12-07T04:48:14;6.07;;;5.57;;
12768;SDS011;6448;48.916;8.990;2022-12-07T04:49:17;6.55;;;6.00;;
12768;SDS011;6448;48.916;8.990;2022-12-07T04:50:18;6.78;;;6.28;;
12768;SDS011;6448;48.916;8.990;2022-12-07T04:51:21;15.82;;;14.52;;
12768;SDS011;6448;48.916;8.990;2022-12-07T04:52:23;15.48;;;14.27;;
12768;SDS011;6448;48.916;8.990;2022-12-07T04:53:25;12.73;;;11.82;;
12768;SDS011;6448;48.916;8.990;2022-12-07T04:54:26;16.27;;;15.18;;
12768;SDS011;6448;48.916;8.990;2022-12-07T04:55:28;13.60;;;12.70;;
12768;SDS011;6448;48.916;8.990;2022-12-07T04:56:28;10.93;;;10.15;;
12768;SDS011;6448;48.916;8.990;2022-12-07T04:57:30;7.85;;;7.35;;
12768;SDS011;6448;48.916;8.990;2022-12-07T04:58:31;7.13;;;6.63;;
12768;SDS011;6448;48.916;8.990;2022-12-07T04:59:33;6.18;;;5.78;;
12768;SDS011;6448;48.916;8.990;2022-12-07T05:00:34;6.10;;;5.70;;
12768;SDS011;6448;48.916;8.990;2022-12-07T05:01:35;6.53;;;6.03;;
12768;SDS011;6448;48.916;8.990;2022-12-07T05:02:36;6.10;;;5.60;;
12768;SDS011;6448;48.916;8.990;2022-12-07T05:03:39;5.70;;;5.30;;
12768;SDS011;6448;48.916;8.990;2022-12-07T05:04:40;5.90;;;5.50;;
12768;SDS011;6448;48.916;8.990;2022-12-07T05:05:42;6.10;;;5.70;;
12768;SDS011;6448;48.916;8.990;2022-12-07T05:06:43;5.40;;;5.00;;
12768;SDS011;6448;48.916;8.990;2022-12-07T05:07:45;5.38;;;4.97;;
12768;SDS011;6448;48.916;8.990;2022-12-07T05:08:45;5.47;;;5.07;;
12768;SDS011;6448;48.916;8.990;2022-12-07T05:09:48;5.20;;;4.80;;
12768;SDS011;6448;48.916;8.990;2022-12-07T05:10:48;5.28;;;4.88;;
12768;SDS011;6448;48.916;8.990;2022-12-07T05:11:50;5.30;;;4.90;;
12768;SDS011;6448;48.916;8.990;2022-12-07T05:12:51;5.75;;;5.35;;
12768;SDS011;6448;48.916;8.990;2022-12-07T05:13:53;6.07;;;5.60;;
12768;SDS011;6448;48.916;8.990;2022-12-07T05:14:54;5.53;;;5.13;;
12768;SDS011;6448;48.916;8.990;2022-12-07T05:15:56;6.07;;;5.57;;
12768;SDS011;6448;48.916;8.990;2022-12-07T05:16:56;5.90;;;5.47;;
12768;SDS011;6448;48.916;8.990;2022-12-07T05:17:58;5.50;;;5.10;;
12768;SDS011;6448;48.916;8.990;2022-12-07T05:19:00;5.55;;;5.15;;
12768;SDS011;6448;48.916;8.990;2022-12-07T05:20:02;5.65;;;5.20;;
12768;SDS011;6448;48.916;8.990;2022-12-07T05:21:05;5.60;;;5.20;;
12768;SDS011;6448;48.916;8.990;2022-12-07T05:22:06;5.30;;;4.90;;
12768;SDS011;6448;48.916;8.990;2022-12-07T05:23:08;5.57;;;5.18;;
12768;SDS011;6448;48.916;8.990;2022-12-07T05:24:09;6.30;;;5.90;;
12768;SDS011;6448;48.916;8.990;2022-12-07T05:25:13;5.55;;;5.15;;
12768;SDS011;6448;48.916;8.990;2022-12-07T05:26:14;5.40;;;5.00;;
12768;SDS011;6448;48.916;8.990;2022-12-07T05:27:16;5.10;;;4.70;;
12768;SDS011;6448;48.916;8.990;2022-12-07T05:28:17;5.25;;;4.85;;
12768;SDS011;6448;48.916;8.990;2022-12-07T05:29:19;5.25;;;4.85;;
12768;SDS011;6448;48.916;8.990;2022-12-07T05:30:19;5.40;;;5.00;;
12768;SDS011;6448;48.916;8.990;2022-12-07T05:31:21;5.40;;;5.00;;
12768;SDS011;6448;48.916;8.990;2022-12-07T05:32:23;5.18;;;4.78;;
12768;SDS011;6448;48.916;8.990;2022-12-07T05:33:25;5.30;;;4.90;;
12768;SDS011;6448;48.916;8.990;2022-12-07T05:34:27;5.47;;;4.97;;
12768;SDS011;6448;48.916;8.990;2022-12-07T05:35:29;4.88;;;4.57;;
12768;SDS011;6448;48.916;8.990;2022-12-07T05:36:30;5.20;;;4.80;;
12768;SDS011;6448;48.916;8.990;2022-12-07T05:37:32;4.97;;;4.57;;
12768;SDS011;6448;48.916;8.990;2022-12-07T05:38:32;4.90;;;4.50;;
12768;SDS011;6448;48.916;8.990;2022-12-07T05:39:35;4.72;;;4.32;;
12768;SDS011;6448;48.916;8.990;2022-12-07T05:40:37;4.68;;;4.38;;
12768;SDS011;6448;48.916;8.990;2022-12-07T05:41:38;4.47;;;4.18;;
12768;SDS011;6448;48.916;8.990;2022-12-07T05:42:57;4.40;;;4.10;;
12768;SDS011;6448;48.916;8.990;2022-12-07T05:43:59;4.50;;;4.20;;
12768;SDS011;6448;48.916;8.990;2022-12-07T05:45:00;4.63;;;4.32;;
12768;SDS011;6448;48.916;8.990;2022-12-07T05:46:02;4.60;;;4.30;;
12768;SDS011;6448;48.916;8.990;2022-12-07T05:47:03;4.60;;;4.30;;
12768;SDS011;6448;48.916;8.990;2022-12-07T05:48:05;4.43;;;4.13;;
12768;SDS011;6448;48.916;8.990;2022-12-07T05:49:06;4.60;;;4.23;;
12768;SDS011;6448;48.916;8.990;2022-12-07T05:50:09;4.50;;;4.20;;
12768;SDS011;6448;48.916;8.990;2022-12-07T05:51:11;4.20;;;3.90;;
12768;SDS011;6448;48.916;8.990;2022-12-07T05:52:12;4.20;;;3.90;;
12768;SDS011;6448;48.916;8.990;2022-12-07T05:53:14;4.07;;;3.78;;
12768;SDS011;6448;48.916;8.990;2022-12-07T05:54:15;4.22;;;3.92;;
12768;SDS011;6448;48.916;8.990;2022-12-07T05:55:16;4.25;;;3.95;;
12768;SDS011;6448;48.916;8.990;2022-12-07T05:56:18;4.03;;;3.72;;
12768;SDS011;6448;48.916;8.990;2022-12-07T05:57:19;3.72;;;3.42;;
12768;SDS011;6448;48.916;8.990;2022-12-07T05:58:21;4.07;;;3.78;;
12768;SDS011;6448;48.916;8.990;2022-12-07T05:59:40;4.22;;;3.92;;
12768;SDS011;6448;48.916;8.990;2022-12-07T06:00:41;4.90;;;4.50;;
12768;SDS011;6448;48.916;8.990;2022-12-07T06:01:42;4.72;;;4.40;;
12768;SDS011;6448;48.916;8.990;2022-12-07T06:02:43;4.40;;;4.10;;
12768;SDS011;6448;48.916;8.990;2022-12-07T06:03:45;4.47;;;4.18;;
12768;SDS011;6448;48.916;8.990;2022-12-07T06:04:46;4.10;;;3.80;;
12768;SDS011;6448;48.916;8.990;2022-12-07T06:05:49;4.13;;;3.83;;
12768;SDS011;6448;48.916;8.990;2022-12-07T06:06:52;3.95;;;3.65;;
12768;SDS011;6448;48.916;8.990;2022-12-07T06:07:54;4.20;;;3.90;;
12768;SDS011;6448;48.916;8.990;2022-12-07T06:08:55;4.13;;;3.83;;
12768;SDS011;6448;48.916;8.990;2022-12-07T06:09:57;4.20;;;3.90;;
12768;SDS011;6448;48.916;8.990;2022-12-07T06:10:59;4.00;;;3.70;;
12768;SDS011;6448;48.916;8.990;2022-12-07T06:12:14;4.32;;;4.03;;
12768;SDS011;6448;48.916;8.990;2022-12-07T06:13:33;4.03;;;3.72;;
12768;SDS011;6448;48.916;8.990;2022-12-07T06:14:35;4.03;;;3.72;;
12768;SDS011;6448;48.916;8.990;2022-12-07T06:15:36;4.15;;;3.85;;
12768;SDS011;6448;48.916;8.990;2022-12-07T06:16:38;4.13;;;3.83;;
12768;SDS011;6448;48.916;8.990;2022-12-07T06:17:39;4.00;;;3.70;;
12768;SDS011;6448;48.916;8.990;2022-12-07T06:18:41;4.20;;;3.90;;
12768;SDS011;6448;48.916;8.990;2022-12-07T06:19:42;4.10;;;3.80;;
12768;SDS011;6448;48.916;8.990;2022-12-07T06:20:44;4.13;;;3.83;;
12768;SDS011;6448;48.916;8.990;2022-12-07T06:21:46;4.50;;;4.10;;
12768;SDS011;6448;48.916;8.990;2022-12-07T06:22:48;4.28;;;3.97;;
12768;SDS011;6448;48.916;8.990;2022-12-07T06:23:48;4.05;;;3.75;;
12768;SDS011;6448;48.916;8.990;2022-12-07T06:24:50;4.40;;;4.10;;
12768;SDS011;6448;48.916;8.990;2022-12-07T06:25:51;4.13;;;3.83;;
12768;SDS011;6448;48.916;8.990;2022-12-07T06:26:53;4.20;;;3.90;;
12768;SDS011;6448;48.916;8.990;2022-12-07T06:27:54;4.45;;;4.15;;
12768;SDS011;6448;48.916;8.990;2022-12-07T06:28:56;4.40;;;4.10;;
12768;SDS011;6448;48.916;8.990;2022-12-07T06:29:57;4.75;;;4.43;;
12768;SDS011;6448;48.916;8.990;2022-12-07T06:30:58;4.60;;;4.30;;
12768;SDS011;6448;48.916;8.990;2022-12-07T06:31:59;4.40;;;4.10;;
12768;SDS011;6448;48.916;8.990;2022-12-07T06:33:02;4.50;;;4.20;;
12768;SDS011;6448;48.916;8.990;2022-12-07T06:34:03;4.80;;;4.40;;
12768;SDS011;6448;48.916;8.990;2022-12-07T06:35:06;4.70;;;4.30;;
12768;SDS011;6448;48.916;8.990;2022-12-07T06:36:09;4.63;;;4.22;;
12768;SDS011;6448;48.916;8.990;2022-12-07T06:37:11;4.30;;;4.00;;
12768;SDS011;6448;48.916;8.990;2022-12-07T06:38:13;4.15;;;3.85;;
12768;SDS011;6448;48.916;8.990;2022-12-07T06:39:14;4.30;;;4.00;;
12768;SDS011;6448;48.916;8.990;2022-12-07T06:40:16;4.10;;;3.80;;
12768;SDS011;6448;48.916;8.990;2022-12-07T06:41:17;4.00;;;3.70;;
12768;SDS011;6448;48.916;8.990;2022-12-07T06:42:18;3.95;;;3.65;;
12768;SDS011;6448;48.916;8.990;2022-12-07T06:43:20;4.18;;;3.88;;